Time;durP1;ratioP1;P1;durP2;ratioP2;P2;SDS_P1;SDS_P2;PMS_P1;PMS_P2;Temp;Humidity;BMP_temperature;BMP_pressure;BME280_temperature;BME280_humidity;BME280_pressure;Samples;Min_cycle;Max_cycle;Signal;HPM_P1;HPM_P2
2024/03/24 00:02:11;;;;;;;48.75;46.30;;;;;;;;;;5115483;27;20031;-58
2024/03/24 00:04:36;;;;;;;46.75;44.33;;;;;;;;;;5115439;27;20035;-58
2024/03/24 00:07:02;;;;;;;50.85;48.28;;;;;;;;;;5113050;27;20028;-52
2024/03/24 00:09:27;;;;;;;48.00;45.58;;;;;;;;;;5113887;27;20043;-51
2024/03/24 00:11:52;;;;;;;47.45;45.05;;;;;;;;;;5114425;27;20042;-54
2024/03/24 00:14:18;;;;;;;48.15;45.65;;;;;;;;;;5113991;27;20023;-57
2024/03/24 00:16:43;;;;;;;50.47;47.85;;;;;;;;;;5113062;27;20032;-56
2024/03/24 00:19:09;;;;;;;48.10;45.63;;;;;;;;;;5113028;27;20027;-57
2024/03/24 00:21:34;;;;;;;49.08;46.58;;;;;;;;;;5111880;27;20027;-57
2024/03/24 00:24:01;;;;;;;48.80;46.35;;;;;;;;;;5112476;27;20461;-58
2024/03/24 00:26:27;;;;;;;47.38;44.97;;;;;;;;;;5113341;27;20492;-57
2024/03/24 00:28:52;;;;;;;48.28;45.85;;;;;;;;;;5114042;27;20037;-58
2024/03/24 00:31:18;;;;;;;47.42;45.00;;;;;;;;;;5118292;27;20088;-58
2024/03/24 00:33:43;;;;;;;46.80;44.40;;;;;;;;;;5115358;27;20117;-58
2024/03/24 00:36:08;;;;;;;49.55;47.05;;;;;;;;;;5113526;27;20023;-58
2024/03/24 00:38:35;;;;;;;50.05;46.33;;;;;;;;;;5111809;28;20534;-58
2024/03/24 00:41:00;;;;;;;50.13;47.53;;;;;;;;;;5112181;28;20111;-52
2024/03/24 00:43:25;;;;;;;48.25;45.85;;;;;;;;;;5111186;28;20093;-59
2024/03/24 00:45:51;;;;;;;46.90;44.50;;;;;;;;;;5112477;28;20028;-58
2024/03/24 00:48:16;;;;;;;47.17;44.78;;;;;;;;;;5115357;28;20038;-58
2024/03/24 00:50:43;;;;;;;48.55;45.60;;;;;;;;;;5095137;28;20092;-53
2024/03/24 00:53:08;;;;;;;52.13;49.47;;;;;;;;;;5115272;28;20035;-50
2024/03/24 00:55:34;;;;;;;48.88;46.38;;;;;;;;;;5093551;28;20035;-53
2024/03/24 00:57:59;;;;;;;47.65;44.78;;;;;;;;;;5112188;28;20520;-53
2024/03/24 01:00:25;;;;;;;44.60;42.35;;;;;;;;;;5112008;28;20023;-51
2024/03/24 01:02:51;;;;;;;46.92;44.53;;;;;;;;;;5112721;28;20034;-51
2024/03/24 01:05:16;;;;;;;47.25;44.80;;;;;;;;;;5112558;28;20046;-52
2024/03/24 01:07:42;;;;;;;45.72;43.40;;;;;;;;;;5110125;28;20036;-53
2024/03/24 01:10:08;;;;;;;45.47;43.17;;;;;;;;;;5117666;28;20185;-52
2024/03/24 01:12:33;;;;;;;49.13;46.60;;;;;;;;;;5110713;28;20046;-60
2024/03/24 01:14:58;;;;;;;45.60;43.30;;;;;;;;;;5113201;28;20043;-58
2024/03/24 01:17:24;;;;;;;46.90;44.50;;;;;;;;;;5112417;27;20068;-51
2024/03/24 01:19:49;;;;;;;44.13;41.88;;;;;;;;;;5114927;27;20046;-58
2024/03/24 01:22:15;;;;;;;47.78;45.38;;;;;;;;;;5114459;27;20036;-58
2024/03/24 01:24:40;;;;;;;46.65;44.25;;;;;;;;;;5115432;27;20028;-58
2024/03/24 01:27:05;;;;;;;47.33;44.92;;;;;;;;;;5115553;27;20483;-50
2024/03/24 01:29:31;;;;;;;45.90;43.58;;;;;;;;;;5116189;27;20046;-58
2024/03/24 01:31:56;;;;;;;47.03;44.63;;;;;;;;;;5098554;27;20045;-50
2024/03/24 01:34:21;;;;;;;44.05;41.80;;;;;;;;;;5098811;27;20058;-52
2024/03/24 01:36:47;;;;;;;44.42;42.03;;;;;;;;;;5116002;27;20028;-49
2024/03/24 01:39:14;;;;;;;45.78;43.28;;;;;;;;;;5115871;27;20024;-51
2024/03/24 01:41:40;;;;;;;47.28;44.88;;;;;;;;;;5115153;27;20031;-52
2024/03/24 01:44:05;;;;;;;46.33;43.97;;;;;;;;;;5115502;27;20479;-59
2024/03/24 01:46:32;;;;;;;45.17;42.83;;;;;;;;;;5114522;27;20046;-58
2024/03/24 01:48:57;;;;;;;47.92;45.28;;;;;;;;;;5098246;27;20473;-58
2024/03/24 01:51:23;;;;;;;43.13;40.92;;;;;;;;;;5116885;27;20031;-59
2024/03/24 01:53:49;;;;;;;41.45;39.30;;;;;;;;;;5115783;27;20035;-58
2024/03/24 01:56:15;;;;;;;42.65;40.45;;;;;;;;;;5101456;27;20255;-49
2024/03/24 01:58:40;;;;;;;43.15;40.92;;;;;;;;;;5116164;27;20039;-58
2024/03/24 02:01:07;;;;;;;44.30;42.05;;;;;;;;;;5099129;27;20035;-58
2024/03/24 02:03:35;;;;;;;45.90;43.50;;;;;;;;;;5116424;27;20026;-58
2024/03/24 02:06:01;;;;;;;46.20;43.83;;;;;;;;;;5115863;27;20023;-51
2024/03/24 02:08:28;;;;;;;44.90;42.58;;;;;;;;;;5114245;27;20096;-58
2024/03/24 02:10:55;;;;;;;42.10;39.63;;;;;;;;;;5116389;27;21157;-52
2024/03/24 02:13:21;;;;;;;43.15;40.95;;;;;;;;;;5096708;27;20465;-48
2024/03/24 02:15:50;;;;;;;42.67;40.53;;;;;;;;;;5114438;27;20028;-51
2024/03/24 02:18:15;;;;;;;41.03;38.92;;;;;;;;;;5114448;27;20043;-58
2024/03/24 02:20:41;;;;;;;44.63;42.22;;;;;;;;;;5116816;27;20384;-58
2024/03/24 02:23:06;;;;;;;40.92;38.83;;;;;;;;;;5117437;27;20043;-51
2024/03/24 02:25:32;;;;;;;40.95;38.75;;;;;;;;;;5095234;27;20453;-49
2024/03/24 02:27:57;;;;;;;39.03;37.03;;;;;;;;;;5115854;27;20043;-58
2024/03/24 02:30:22;;;;;;;37.88;35.95;;;;;;;;;;5115635;27;20110;-58
2024/03/24 02:32:48;;;;;;;39.70;37.70;;;;;;;;;;5116051;27;20054;-58
2024/03/24 02:35:13;;;;;;;39.67;37.67;;;;;;;;;;5098434;27;20046;-52
2024/03/24 02:37:38;;;;;;;38.05;36.10;;;;;;;;;;5095560;27;20038;-51
2024/03/24 02:40:08;;;;;;;37.63;35.72;;;;;;;;;;5114939;27;20027;-49
2024/03/24 02:42:34;;;;;;;36.03;34.17;;;;;;;;;;5078325;27;20411;-49
2024/03/24 02:44:59;;;;;;;38.22;36.22;;;;;;;;;;5115607;27;20039;-58
2024/03/24 02:47:25;;;;;;;39.00;36.90;;;;;;;;;;5114053;27;20031;-52
2024/03/24 02:49:50;;;;;;;40.45;38.40;;;;;;;;;;5115469;27;20420;-52
2024/03/24 02:52:15;;;;;;;40.30;38.22;;;;;;;;;;5115750;27;20610;-48
2024/03/24 02:54:41;;;;;;;41.08;38.97;;;;;;;;;;5114743;27;20647;-49
2024/03/24 02:57:06;;;;;;;40.75;38.65;;;;;;;;;;5115017;27;20439;-50
2024/03/24 02:59:32;;;;;;;39.95;37.75;;;;;;;;;;5113339;27;20460;-49
2024/03/24 03:01:58;;;;;;;41.30;39.20;;;;;;;;;;5116428;27;20353;-58
2024/03/24 03:04:23;;;;;;;38.40;36.45;;;;;;;;;;5116246;27;20057;-50
2024/03/24 03:06:49;;;;;;;38.63;36.63;;;;;;;;;;5112967;27;20544;-56
2024/03/24 03:09:17;;;;;;;38.17;36.13;;;;;;;;;;5113849;27;20032;-54
2024/03/24 03:11:43;;;;;;;36.92;35.03;;;;;;;;;;5112765;27;20520;-52
2024/03/24 03:14:08;;;;;;;39.95;37.95;;;;;;;;;;5115690;27;20031;-53
2024/03/24 03:16:34;;;;;;;40.08;38.05;;;;;;;;;;5096145;27;20441;-51
2024/03/24 03:18:59;;;;;;;41.30;39.20;;;;;;;;;;5098277;27;20563;-53
2024/03/24 03:21:27;;;;;;;41.40;39.30;;;;;;;;;;5118648;27;20551;-58
2024/03/24 03:23:53;;;;;;;40.42;38.35;;;;;;;;;;5094593;27;20135;-51
2024/03/24 03:26:20;;;;;;;40.70;38.63;;;;;;;;;;5115169;27;20464;-57
2024/03/24 03:28:46;;;;;;;39.17;37.13;;;;;;;;;;5111279;27;20170;-59
2024/03/24 03:31:11;;;;;;;37.22;35.33;;;;;;;;;;5114828;27;20065;-59
2024/03/24 03:33:37;;;;;;;36.30;34.45;;;;;;;;;;5116368;27;20452;-48
2024/03/24 03:36:03;;;;;;;36.97;34.97;;;;;;;;;;5118231;27;20034;-59
2024/03/24 03:38:29;;;;;;;40.20;38.15;;;;;;;;;;5095782;27;20046;-59
2024/03/24 03:40:54;;;;;;;37.58;35.67;;;;;;;;;;5116518;27;20384;-59
2024/03/24 03:43:21;;;;;;;37.65;35.75;;;;;;;;;;5116553;27;20031;-58
2024/03/24 03:45:47;;;;;;;37.95;36.03;;;;;;;;;;5117745;27;20103;-48
2024/03/24 03:48:12;;;;;;;37.58;35.67;;;;;;;;;;5088039;27;20472;-58
2024/03/24 03:50:40;;;;;;;35.58;33.78;;;;;;;;;;5113969;27;20034;-51
2024/03/24 03:53:06;;;;;;;36.45;34.58;;;;;;;;;;5096205;27;20057;-52
2024/03/24 03:55:33;;;;;;;36.00;34.17;;;;;;;;;;5116250;27;20102;-54
2024/03/24 03:58:02;;;;;;;36.08;34.22;;;;;;;;;;5095339;27;20030;-51
2024/03/24 04:00:27;;;;;;;37.67;35.75;;;;;;;;;;5090986;28;20028;-54
2024/03/24 04:02:52;;;;;;;38.10;36.17;;;;;;;;;;5113921;27;20043;-50
2024/03/24 04:05:18;;;;;;;36.70;34.83;;;;;;;;;;5114592;27;20031;-52
2024/03/24 04:07:44;;;;;;;38.40;36.40;;;;;;;;;;5113114;27;20058;-58
2024/03/24 04:10:09;;;;;;;36.45;34.55;;;;;;;;;;5113667;27;20043;-60
2024/03/24 04:12:36;;;;;;;35.03;33.22;;;;;;;;;;5107331;27;20027;-59
2024/03/24 04:15:03;;;;;;;37.58;35.65;;;;;;;;;;5112837;27;20031;-53
2024/03/24 04:17:29;;;;;;;35.70;33.88;;;;;;;;;;5113036;27;20042;-51
2024/03/24 04:19:54;;;;;;;36.78;34.88;;;;;;;;;;5113414;27;21403;-53
2024/03/24 04:22:21;;;;;;;38.63;36.47;;;;;;;;;;5113864;27;20115;-51
2024/03/24 04:24:47;;;;;;;36.55;34.65;;;;;;;;;;5095715;28;20043;-58
2024/03/24 04:27:12;;;;;;;36.55;34.65;;;;;;;;;;5113685;27;20039;-58
2024/03/24 04:29:38;;;;;;;36.00;34.15;;;;;;;;;;5115383;27;20445;-58
2024/03/24 04:32:03;;;;;;;37.92;35.92;;;;;;;;;;5111890;27;20032;-53
2024/03/24 04:34:29;;;;;;;35.08;33.28;;;;;;;;;;5116965;27;20062;-51
2024/03/24 04:36:54;;;;;;;38.83;36.85;;;;;;;;;;5112651;27;21735;-54
2024/03/24 04:39:19;;;;;;;35.65;33.83;;;;;;;;;;5092097;28;20035;-52
2024/03/24 04:41:48;;;;;;;37.70;35.78;;;;;;;;;;5110434;28;20035;-59
2024/03/24 04:44:13;;;;;;;35.88;34.03;;;;;;;;;;5111631;28;20039;-57
2024/03/24 04:46:39;;;;;;;37.17;35.28;;;;;;;;;;5113668;28;20035;-57
2024/03/24 04:49:04;;;;;;;37.78;35.47;;;;;;;;;;5113335;28;20027;-58
2024/03/24 04:51:33;;;;;;;37.67;35.58;;;;;;;;;;5111695;28;20047;-50
2024/03/24 04:53:58;;;;;;;39.15;37.15;;;;;;;;;;5096896;27;20046;-58
2024/03/24 04:56:24;;;;;;;38.10;36.15;;;;;;;;;;5114263;27;20019;-51
2024/03/24 04:58:49;;;;;;;35.65;33.83;;;;;;;;;;5117659;27;20027;-52
2024/03/24 05:01:15;;;;;;;36.38;34.50;;;;;;;;;;5116851;27;20031;-58
2024/03/24 05:03:41;;;;;;;36.58;34.70;;;;;;;;;;5098046;27;20020;-51
2024/03/24 05:06:06;;;;;;;36.28;34.38;;;;;;;;;;5116543;27;20031;-53
2024/03/24 05:08:36;;;;;;;35.80;33.95;;;;;;;;;;5119217;27;20614;-51
2024/03/24 05:11:05;;;;;;;37.07;35.20;;;;;;;;;;5119202;27;20039;-59
2024/03/24 05:13:32;;;;;;;34.28;32.50;;;;;;;;;;5102255;27;20367;-52
2024/03/24 05:15:57;;;;;;;35.00;33.20;;;;;;;;;;5115337;27;20074;-51
2024/03/24 05:18:23;;;;;;;36.03;34.17;;;;;;;;;;5122125;27;20066;-50
2024/03/24 05:20:48;;;;;;;35.92;34.08;;;;;;;;;;5115795;27;20062;-59
2024/03/24 05:23:18;;;;;;;32.78;31.10;;;;;;;;;;5120919;27;20042;-53
2024/03/24 05:25:53;;;;;;;33.15;31.45;;;;;;;;;;5115472;27;20027;-51
2024/03/24 05:28:18;;;;;;;31.98;30.30;;;;;;;;;;5114497;27;20042;-48
2024/03/24 05:30:44;;;;;;;33.60;31.85;;;;;;;;;;5117129;27;20027;-48
2024/03/24 05:33:09;;;;;;;33.28;31.52;;;;;;;;;;5098242;27;20070;-50
2024/03/24 05:35:35;;;;;;;32.70;31.02;;;;;;;;;;5117127;27;20027;-50
2024/03/24 05:38:00;;;;;;;33.50;31.75;;;;;;;;;;5117646;27;20577;-57
2024/03/24 05:40:25;;;;;;;33.50;31.75;;;;;;;;;;5117037;27;20023;-58
2024/03/24 05:42:51;;;;;;;32.97;31.27;;;;;;;;;;5115270;27;20046;-51
2024/03/24 05:45:16;;;;;;;30.92;29.33;;;;;;;;;;5115582;27;20038;-58
2024/03/24 05:47:43;;;;;;;33.92;32.05;;;;;;;;;;5100282;27;20023;-58
2024/03/24 05:50:08;;;;;;;32.47;30.80;;;;;;;;;;5097884;27;20235;-52
2024/03/24 05:52:36;;;;;;;31.92;30.27;;;;;;;;;;5118785;27;20026;-52
2024/03/24 05:55:04;;;;;;;31.92;30.27;;;;;;;;;;5114111;27;20040;-51
2024/03/24 05:57:31;;;;;;;34.90;33.10;;;;;;;;;;5117789;27;20099;-52
2024/03/24 05:59:56;;;;;;;34.97;33.13;;;;;;;;;;5117354;27;20071;-58
2024/03/24 06:02:21;;;;;;;33.35;31.60;;;;;;;;;;5116561;27;20039;-58
2024/03/24 06:04:47;;;;;;;33.40;31.67;;;;;;;;;;5115037;27;20031;-58
2024/03/24 06:07:12;;;;;;;35.50;33.65;;;;;;;;;;5115464;27;20019;-59
2024/03/24 06:09:38;;;;;;;35.22;33.33;;;;;;;;;;5117000;27;20410;-53
2024/03/24 06:12:04;;;;;;;34.78;32.97;;;;;;;;;;5111456;27;20028;-59
2024/03/24 06:14:30;;;;;;;33.70;31.98;;;;;;;;;;5117775;27;20031;-58
2024/03/24 06:16:55;;;;;;;33.97;32.22;;;;;;;;;;5116353;27;20885;-51
2024/03/24 06:19:21;;;;;;;34.75;32.95;;;;;;;;;;5115409;27;20043;-59
2024/03/24 06:21:46;;;;;;;35.38;33.58;;;;;;;;;;5112755;27;20051;-58
2024/03/24 06:24:12;;;;;;;33.15;31.42;;;;;;;;;;5115346;27;20031;-52
2024/03/24 06:26:37;;;;;;;35.35;33.50;;;;;;;;;;5114657;27;20508;-50
2024/03/24 06:29:02;;;;;;;35.08;33.30;;;;;;;;;;5114242;27;20035;-53
2024/03/24 06:31:27;;;;;;;34.10;32.30;;;;;;;;;;5112239;27;20039;-51
2024/03/24 06:33:56;;;;;;;37.58;35.67;;;;;;;;;;5116209;27;20614;-51
2024/03/24 06:36:21;;;;;;;34.10;32.35;;;;;;;;;;5117448;27;20352;-51
2024/03/24 06:38:47;;;;;;;34.67;32.90;;;;;;;;;;5115250;27;20130;-60
2024/03/24 06:41:12;;;;;;;35.75;33.78;;;;;;;;;;5112897;27;20046;-59
2024/03/24 06:43:42;;;;;;;37.50;35.55;;;;;;;;;;5116336;27;20416;-60
2024/03/24 06:46:07;;;;;;;37.95;35.97;;;;;;;;;;5114099;27;20015;-58
2024/03/24 06:48:33;;;;;;;39.10;37.10;;;;;;;;;;5115300;27;20722;-53
2024/03/24 06:50:58;;;;;;;39.33;37.22;;;;;;;;;;5111283;27;20491;-49
2024/03/24 06:53:23;;;;;;;35.85;34.03;;;;;;;;;;5114079;27;20046;-59
2024/03/24 06:55:49;;;;;;;40.58;38.50;;;;;;;;;;5114418;27;20039;-59
2024/03/24 06:58:16;;;;;;;38.05;36.13;;;;;;;;;;5113302;27;20758;-57
2024/03/24 07:00:41;;;;;;;40.78;38.38;;;;;;;;;;5115508;27;20357;-57
2024/03/24 07:03:06;;;;;;;37.92;36.03;;;;;;;;;;5115655;27;20035;-58
2024/03/24 07:05:32;;;;;;;37.80;35.90;;;;;;;;;;5116591;27;20064;-49
2024/03/24 07:07:57;;;;;;;38.55;36.55;;;;;;;;;;5113475;27;20367;-49
2024/03/24 07:10:22;;;;;;;36.17;34.28;;;;;;;;;;5114510;27;20138;-47
2024/03/24 07:12:48;;;;;;;36.53;34.63;;;;;;;;;;5113658;27;20031;-58
2024/03/24 07:15:13;;;;;;;37.20;35.30;;;;;;;;;;5114994;27;20031;-49
2024/03/24 07:17:38;;;;;;;34.42;32.63;;;;;;;;;;5115283;27;20035;-49
2024/03/24 07:20:04;;;;;;;34.55;32.75;;;;;;;;;;5109791;27;20083;-50
2024/03/24 07:22:29;;;;;;;31.42;29.83;;;;;;;;;;5116288;27;20026;-50
2024/03/24 07:24:55;;;;;;;34.55;32.75;;;;;;;;;;5113433;27;20024;-58
2024/03/24 07:27:20;;;;;;;33.28;31.58;;;;;;;;;;5109282;27;20041;-49
2024/03/24 07:29:45;;;;;;;30.80;29.20;;;;;;;;;;5095120;27;20031;-58
2024/03/24 07:32:11;;;;;;;31.85;30.17;;;;;;;;;;5095551;27;20347;-49
2024/03/24 07:34:39;;;;;;;27.50;26.08;;;;;;;;;;5112290;27;20085;-48
2024/03/24 07:37:05;;;;;;;28.63;27.02;;;;;;;;;;5115369;27;20035;-57
2024/03/24 07:39:30;;;;;;;27.92;26.42;;;;;;;;;;5114766;27;20503;-58
2024/03/24 07:41:55;;;;;;;26.73;25.33;;;;;;;;;;5093998;27;20038;-59
2024/03/24 07:44:21;;;;;;;26.48;25.08;;;;;;;;;;5113688;27;20042;-58
2024/03/24 07:46:47;;;;;;;27.90;26.40;;;;;;;;;;5113395;27;20085;-50
2024/03/24 07:49:12;;;;;;;25.85;24.45;;;;;;;;;;5112533;27;20358;-59
2024/03/24 07:51:38;;;;;;;27.00;25.60;;;;;;;;;;5114940;27;20035;-59
2024/03/24 07:54:05;;;;;;;27.23;25.83;;;;;;;;;;5115759;27;20453;-58
2024/03/24 07:56:30;;;;;;;27.45;26.02;;;;;;;;;;5114672;27;20449;-60
2024/03/24 07:58:56;;;;;;;26.27;24.88;;;;;;;;;;5112501;27;20078;-60
2024/03/24 08:01:21;;;;;;;27.10;25.70;;;;;;;;;;5115806;27;20039;-59
2024/03/24 08:03:46;;;;;;;27.63;26.13;;;;;;;;;;5114047;27;20032;-59
2024/03/24 08:06:12;;;;;;;31.10;29.50;;;;;;;;;;5113710;27;20031;-59
2024/03/24 08:08:38;;;;;;;30.23;28.63;;;;;;;;;;5115275;27;20376;-59
2024/03/24 08:11:03;;;;;;;28.67;27.17;;;;;;;;;;5113611;27;20096;-60
2024/03/24 08:13:28;;;;;;;29.27;27.77;;;;;;;;;;5115510;27;20023;-59
2024/03/24 08:15:54;;;;;;;28.73;26.48;;;;;;;;;;5096072;27;20031;-59
2024/03/24 08:18:20;;;;;;;28.52;27.02;;;;;;;;;;5115353;27;20040;-59
2024/03/24 08:20:47;;;;;;;27.35;25.88;;;;;;;;;;5111434;27;20712;-49
2024/03/24 08:23:13;;;;;;;28.15;26.65;;;;;;;;;;5109520;27;20489;-49
2024/03/24 08:25:39;;;;;;;26.25;24.85;;;;;;;;;;5113962;27;20541;-60
2024/03/24 08:28:04;;;;;;;25.95;24.55;;;;;;;;;;5113037;27;20042;-60
2024/03/24 08:30:31;;;;;;;26.67;25.20;;;;;;;;;;5114990;27;20150;-59
2024/03/24 08:32:56;;;;;;;25.98;24.58;;;;;;;;;;5113769;27;20038;-59
2024/03/24 08:35:22;;;;;;;27.33;25.92;;;;;;;;;;5111168;27;20043;-52
2024/03/24 08:37:49;;;;;;;27.88;26.33;;;;;;;;;;5113139;27;20103;-51
2024/03/24 08:40:14;;;;;;;23.92;22.63;;;;;;;;;;5095668;28;20039;-52
2024/03/24 08:42:40;;;;;;;24.60;23.30;;;;;;;;;;5090284;28;20042;-52
2024/03/24 08:45:05;;;;;;;24.70;23.40;;;;;;;;;;5110019;28;20042;-51
2024/03/24 08:47:31;;;;;;;26.13;24.73;;;;;;;;;;5113292;28;20372;-59
2024/03/24 08:49:56;;;;;;;26.25;24.75;;;;;;;;;;5113506;28;20027;-51
2024/03/24 08:52:22;;;;;;;26.77;25.38;;;;;;;;;;5111357;28;20049;-54
2024/03/24 08:54:47;;;;;;;25.13;23.83;;;;;;;;;;5111397;28;20522;-60
2024/03/24 08:57:12;;;;;;;27.23;25.73;;;;;;;;;;5108835;28;20811;-60
2024/03/24 08:59:38;;;;;;;25.08;23.70;;;;;;;;;;5112213;28;20047;-60
2024/03/24 09:02:03;;;;;;;24.92;23.63;;;;;;;;;;5095830;28;20561;-51
2024/03/24 09:04:28;;;;;;;25.45;24.05;;;;;;;;;;5115167;28;20032;-53
2024/03/24 09:06:54;;;;;;;25.80;24.40;;;;;;;;;;5112956;28;20358;-60
2024/03/24 09:09:19;;;;;;;25.33;23.92;;;;;;;;;;5114678;28;20035;-54
2024/03/24 09:11:45;;;;;;;25.23;23.83;;;;;;;;;;5111454;28;20050;-60
2024/03/24 09:14:10;;;;;;;24.17;22.88;;;;;;;;;;5115003;28;20023;-54
2024/03/24 09:16:35;;;;;;;25.88;24.45;;;;;;;;;;5115469;28;20110;-60
2024/03/24 09:19:02;;;;;;;27.65;26.17;;;;;;;;;;5113725;28;20051;-60
2024/03/24 09:21:27;;;;;;;25.02;23.63;;;;;;;;;;5113728;28;20089;-59
2024/03/24 09:23:53;;;;;;;25.10;23.70;;;;;;;;;;5114185;28;20027;-59
2024/03/24 09:26:18;;;;;;;31.42;24.25;;;;;;;;;;5111285;28;20054;-60
2024/03/24 09:28:46;;;;;;;25.50;24.10;;;;;;;;;;5114162;28;20362;-50
2024/03/24 09:31:13;;;;;;;24.48;23.17;;;;;;;;;;5112546;28;20032;-60
2024/03/24 09:33:38;;;;;;;24.77;23.45;;;;;;;;;;5113609;28;20043;-52
2024/03/24 09:36:04;;;;;;;22.73;21.52;;;;;;;;;;5110968;28;20117;-60
2024/03/24 09:38:29;;;;;;;21.73;20.52;;;;;;;;;;5112380;28;20032;-60
2024/03/24 09:40:55;;;;;;;22.58;21.38;;;;;;;;;;5116188;27;20039;-60
2024/03/24 09:43:21;;;;;;;22.77;21.55;;;;;;;;;;5114996;27;20035;-54
2024/03/24 09:45:46;;;;;;;22.23;21.02;;;;;;;;;;5117447;27;20042;-59
2024/03/24 09:48:13;;;;;;;22.73;21.52;;;;;;;;;;5115050;27;20031;-54
2024/03/24 09:50:39;;;;;;;23.05;21.83;;;;;;;;;;5113150;27;20099;-52
2024/03/24 09:53:05;;;;;;;23.95;22.65;;;;;;;;;;5115970;27;20046;-54
2024/03/24 09:55:30;;;;;;;23.10;21.88;;;;;;;;;;5115692;27;20039;-53
2024/03/24 09:57:56;;;;;;;22.92;21.73;;;;;;;;;;5100049;27;20366;-52
2024/03/24 10:00:26;;;;;;;22.58;21.27;;;;;;;;;;5114620;27;20459;-53
2024/03/24 10:02:52;;;;;;;22.77;21.48;;;;;;;;;;5118344;27;20045;-59
2024/03/24 10:05:18;;;;;;;23.90;22.60;;;;;;;;;;5114723;27;20039;-59
2024/03/24 10:07:44;;;;;;;22.67;21.45;;;;;;;;;;5118734;27;20031;-51
2024/03/24 10:10:11;;;;;;;23.10;21.70;;;;;;;;;;5097967;27;20445;-54
2024/03/24 10:12:36;;;;;;;23.88;22.58;;;;;;;;;;5114000;27;20036;-53
2024/03/24 10:15:22;;;;;;;23.50;22.23;;;;;;;;;;5117560;27;20044;-52
2024/03/24 10:18:09;;;;;;;23.08;21.77;;;;;;;;;;5113987;27;20372;-60
2024/03/24 10:20:36;;;;;;;23.00;21.75;;;;;;;;;;5100732;27;20058;-60
2024/03/24 10:23:01;;;;;;;23.88;22.42;;;;;;;;;;5116128;27;20038;-53
2024/03/24 10:25:28;;;;;;;24.67;23.35;;;;;;;;;;5095174;27;20357;-55
2024/03/24 10:27:55;;;;;;;24.00;22.70;;;;;;;;;;5115202;27;20040;-60
2024/03/24 10:30:21;;;;;;;23.25;22.00;;;;;;;;;;5113751;27;20040;-60
2024/03/24 10:32:46;;;;;;;23.45;22.05;;;;;;;;;;5114467;27;20049;-54
2024/03/24 10:35:12;;;;;;;22.67;21.42;;;;;;;;;;5115090;27;20059;-60
2024/03/24 10:37:38;;;;;;;22.17;20.98;;;;;;;;;;5114694;27;20080;-54
2024/03/24 10:40:12;;;;;;;22.42;21.23;;;;;;;;;;5115742;27;20035;-60
2024/03/24 10:42:54;;;;;;;22.35;21.15;;;;;;;;;;5115901;27;20035;-50
2024/03/24 10:45:24;;;;;;;22.98;21.77;;;;;;;;;;5097473;27;20447;-53
2024/03/24 10:48:03;;;;;;;23.23;21.92;;;;;;;;;;5115820;27;20039;-61
2024/03/24 10:50:29;;;;;;;23.08;21.88;;;;;;;;;;5116629;27;20035;-60
2024/03/24 10:52:59;;;;;;;24.17;22.60;;;;;;;;;;5112750;27;20060;-55
2024/03/24 10:55:26;;;;;;;22.30;21.10;;;;;;;;;;5113910;27;20448;-60
2024/03/24 10:57:53;;;;;;;23.08;21.77;;;;;;;;;;5097201;27;20040;-55
2024/03/24 11:00:19;;;;;;;23.75;22.45;;;;;;;;;;5117829;27;20035;-54
2024/03/24 11:02:45;;;;;;;23.67;22.40;;;;;;;;;;5115131;27;20038;-53
2024/03/24 11:05:10;;;;;;;24.30;23.00;;;;;;;;;;5114967;27;20027;-60
2024/03/24 11:07:39;;;;;;;23.40;22.10;;;;;;;;;;5116973;27;20062;-61
2024/03/24 11:10:05;;;;;;;24.38;23.08;;;;;;;;;;5113016;27;20035;-54
2024/03/24 11:12:34;;;;;;;26.50;25.10;;;;;;;;;;5114922;27;20084;-61
2024/03/24 11:14:59;;;;;;;26.60;25.20;;;;;;;;;;5116216;27;20070;-60
2024/03/24 11:17:24;;;;;;;24.33;23.02;;;;;;;;;;5113991;27;20063;-55
2024/03/24 11:19:51;;;;;;;25.67;24.27;;;;;;;;;;5113130;27;20069;-61
2024/03/24 11:22:35;;;;;;;24.42;23.13;;;;;;;;;;5095949;27;20215;-61
2024/03/24 11:25:02;;;;;;;24.15;22.85;;;;;;;;;;5112407;27;20037;-63
2024/03/24 11:27:28;;;;;;;24.17;22.88;;;;;;;;;;5114517;27;20026;-54
2024/03/24 11:29:54;;;;;;;24.90;23.60;;;;;;;;;;5113551;27;20030;-61
2024/03/24 11:32:20;;;;;;;25.80;24.40;;;;;;;;;;5112962;27;20560;-54
2024/03/24 11:34:53;;;;;;;25.85;24.45;;;;;;;;;;5114107;27;20118;-55
2024/03/24 11:37:19;;;;;;;24.73;23.42;;;;;;;;;;5114812;27;20333;-54
2024/03/24 11:39:49;;;;;;;26.13;24.70;;;;;;;;;;5115016;27;20142;-61
2024/03/24 11:42:15;;;;;;;24.80;23.48;;;;;;;;;;5097863;27;20028;-61
2024/03/24 11:44:42;;;;;;;25.48;24.13;;;;;;;;;;5118668;27;20085;-63
2024/03/24 11:47:08;;;;;;;26.75;25.35;;;;;;;;;;5115429;27;20467;-61
2024/03/24 11:49:37;;;;;;;29.75;28.15;;;;;;;;;;5112431;27;20111;-61
2024/03/24 11:52:03;;;;;;;32.10;30.40;;;;;;;;;;5112271;27;20031;-51
2024/03/24 11:54:29;;;;;;;29.25;27.75;;;;;;;;;;5113131;27;20031;-61
2024/03/24 11:56:58;;;;;;;31.30;29.67;;;;;;;;;;5112823;27;20059;-54
2024/03/24 11:59:24;;;;;;;30.50;28.90;;;;;;;;;;5110471;27;20051;-53
2024/03/24 12:01:50;;;;;;;29.98;28.38;;;;;;;;;;5094898;28;20028;-55
2024/03/24 12:04:16;;;;;;;25.40;24.00;;;;;;;;;;5110642;27;20035;-54
2024/03/24 12:06:42;;;;;;;24.95;23.65;;;;;;;;;;5093455;27;20028;-53
2024/03/24 12:09:09;;;;;;;24.77;23.48;;;;;;;;;;5105366;27;20036;-52
2024/03/24 12:11:35;;;;;;;23.05;21.85;;;;;;;;;;5111575;27;20175;-53
2024/03/24 12:14:00;;;;;;;24.42;23.02;;;;;;;;;;5094824;27;20813;-52
2024/03/24 12:16:25;;;;;;;24.58;23.27;;;;;;;;;;5107676;27;20031;-61
2024/03/24 12:18:51;;;;;;;24.23;22.92;;;;;;;;;;5110872;27;20361;-61
2024/03/24 12:21:16;;;;;;;22.85;21.65;;;;;;;;;;5109985;27;20377;-61
2024/03/24 12:23:42;;;;;;;25.17;23.88;;;;;;;;;;5082553;28;21816;-61
2024/03/24 12:26:07;;;;;;;23.13;21.85;;;;;;;;;;5091732;27;20031;-62
2024/03/24 12:28:33;;;;;;;23.73;22.42;;;;;;;;;;5108434;27;20521;-62
2024/03/24 12:31:00;;;;;;;27.25;25.83;;;;;;;;;;5112725;27;20456;-54
2024/03/24 12:33:26;;;;;;;28.83;27.33;;;;;;;;;;5113823;27;20039;-51
2024/03/24 12:35:56;;;;;;;29.80;28.20;;;;;;;;;;5111375;27;20031;-55
2024/03/24 12:38:21;;;;;;;28.13;26.63;;;;;;;;;;5107410;27;20404;-60
2024/03/24 12:40:54;;;;;;;27.92;26.33;;;;;;;;;;5114314;28;20039;-60
2024/03/24 12:43:27;;;;;;;26.48;25.08;;;;;;;;;;5111819;28;20083;-60
2024/03/24 12:45:56;;;;;;;25.55;24.15;;;;;;;;;;5111002;28;20027;-60
2024/03/24 12:48:28;;;;;;;24.42;23.13;;;;;;;;;;5093417;28;20476;-60
2024/03/24 12:50:54;;;;;;;24.88;23.52;;;;;;;;;;5109779;28;20569;-60
2024/03/24 12:53:50;;;;;;;24.92;23.52;;;;;;;;;;5109598;28;20520;-60
2024/03/24 12:56:17;;;;;;;24.50;23.20;;;;;;;;;;5110274;28;20697;-60
2024/03/24 12:58:45;;;;;;;27.25;25.85;;;;;;;;;;5114271;28;20033;-61
2024/03/24 13:01:13;;;;;;;25.02;23.70;;;;;;;;;;5109266;28;20637;-61
2024/03/24 13:03:40;;;;;;;24.55;23.17;;;;;;;;;;5113267;28;20045;-61
2024/03/24 13:06:09;;;;;;;22.70;21.50;;;;;;;;;;5111168;28;20041;-53
2024/03/24 13:08:35;;;;;;;21.60;20.45;;;;;;;;;;5112306;28;20469;-53
2024/03/24 13:11:00;;;;;;;22.25;21.05;;;;;;;;;;5110450;28;20034;-53
2024/03/24 13:13:26;;;;;;;22.00;20.80;;;;;;;;;;5083455;28;20123;-60
2024/03/24 13:15:52;;;;;;;21.80;20.60;;;;;;;;;;5099212;27;20088;-52
2024/03/24 13:18:23;;;;;;;22.80;21.60;;;;;;;;;;5118247;27;20654;-55
2024/03/24 13:20:51;;;;;;;;;;;;;;;;;;5117330;27;20035;-50
2024/03/24 13:23:17;;;;;;;21.50;20.38;;;;;;;;;;5117847;27;20319;-52
2024/03/24 13:25:48;;;;;;;23.65;22.40;;;;;;;;;;5116345;27;20039;-60
2024/03/24 13:28:17;;;;;;;25.27;23.95;;;;;;;;;;5114725;27;20032;-60
2024/03/24 13:30:46;;;;;;;23.45;22.15;;;;;;;;;;5116434;27;20112;-51
2024/03/24 13:33:11;;;;;;;24.15;22.85;;;;;;;;;;5117575;27;20071;-60
2024/03/24 13:35:37;;;;;;;25.15;23.85;;;;;;;;;;5112938;27;20134;-60
2024/03/24 13:38:39;;;;;;;26.13;24.73;;;;;;;;;;5115351;27;20043;-60
2024/03/24 13:41:23;;;;;;;26.17;24.77;;;;;;;;;;5118558;27;20042;-61
2024/03/24 13:44:07;;;;;;;23.23;22.02;;;;;;;;;;5111616;27;20071;-52
2024/03/24 13:46:33;;;;;;;23.77;22.48;;;;;;;;;;5114953;27;20703;-48
2024/03/24 13:49:00;;;;;;;25.15;23.85;;;;;;;;;;5097262;27;20558;-51
2024/03/24 13:51:33;;;;;;;25.55;24.17;;;;;;;;;;5115566;27;20038;-48
2024/03/24 13:54:00;;;;;;;26.42;25.02;;;;;;;;;;5118726;27;20042;-61
2024/03/24 13:56:25;;;;;;;28.23;26.73;;;;;;;;;;5114874;27;20092;-52
2024/03/24 13:58:50;;;;;;;27.95;26.48;;;;;;;;;;5118129;27;20443;-54
2024/03/24 14:01:16;;;;;;;27.63;26.23;;;;;;;;;;5116521;27;20063;-54
2024/03/24 14:03:45;;;;;;;27.90;26.40;;;;;;;;;;5115162;27;20380;-52
2024/03/24 14:06:11;;;;;;;24.52;23.23;;;;;;;;;;5116683;27;20051;-59
2024/03/24 14:08:36;;;;;;;24.15;22.85;;;;;;;;;;5115136;27;20038;-51
2024/03/24 14:11:05;;;;;;;24.27;22.98;;;;;;;;;;5115269;27;20035;-60
2024/03/24 14:13:47;;;;;;;24.35;23.05;;;;;;;;;;5114701;27;20114;-60
2024/03/24 14:16:29;;;;;;;25.05;23.75;;;;;;;;;;5115997;27;20024;-60